createdAt,value
2023-02-11T00:00:00.927Z,1006.1
2023-02-11T00:10:00.728Z,1006.1
2023-02-11T00:20:00.821Z,1006.0
2023-02-11T00:30:00.555Z,1005.9
2023-02-11T00:40:00.556Z,1005.9
2023-02-11T00:50:00.608Z,1005.7
2023-02-11T01:00:00.588Z,1005.6
2023-02-11T01:10:00.556Z,1005.5
2023-02-11T01:20:00.564Z,1005.4
2023-02-11T01:30:00.559Z,1005.3
2023-02-11T01:40:00.561Z,1005.3
2023-02-11T01:50:00.555Z,1005.2
2023-02-11T02:00:00.782Z,1005.2
2023-02-11T02:10:00.771Z,1005.1
2023-02-11T02:20:00.781Z,1005.3
2023-02-11T02:30:00.811Z,1005.3
2023-02-11T02:40:00.733Z,1005.2
2023-02-11T02:50:00.641Z,1005.1
2023-02-11T03:00:00.566Z,1005.1
2023-02-11T03:10:00.545Z,1004.8
2023-02-11T03:20:00.681Z,1004.8
2023-02-11T03:30:00.541Z,1004.7
2023-02-11T03:40:00.584Z,1004.6
2023-02-11T03:50:00.544Z,1004.4
2023-02-11T04:00:00.552Z,1004.3
2023-02-11T04:10:00.555Z,1004.1
2023-02-11T04:20:00.555Z,1004.1
2023-02-11T04:30:00.790Z,1004.1
2023-02-11T04:40:00.866Z,1004.1
2023-02-11T04:50:01.453Z,1004.0
2023-02-11T05:00:00.929Z,1004.1
2023-02-11T05:10:00.812Z,1004.0
2023-02-11T05:20:00.752Z,1004.0
2023-02-11T05:30:00.792Z,1003.9
2023-02-11T05:40:01.023Z,1003.8
2023-02-11T05:50:00.757Z,1003.9
2023-02-11T06:00:00.537Z,1003.8
2023-02-11T06:10:00.665Z,1003.7
2023-02-11T06:20:00.641Z,1003.7
2023-02-11T06:30:00.624Z,1003.7
2023-02-11T06:40:00.559Z,1003.7
2023-02-11T06:50:00.559Z,1003.7
2023-02-11T07:00:00.556Z,1003.6
2023-02-11T07:10:00.577Z,1003.5
2023-02-11T07:20:00.542Z,1003.5
2023-02-11T07:30:00.562Z,1003.5
2023-02-11T07:40:00.696Z,1003.4
2023-02-11T07:50:00.800Z,1003.3
2023-02-11T08:00:00.809Z,1003.3
2023-02-11T08:10:00.817Z,1003.2
2023-02-11T08:20:00.774Z,1003.3
2023-02-11T08:30:00.775Z,1003.3
2023-02-11T08:40:00.895Z,1003.3
2023-02-11T09:00:00.566Z,1003.1
2023-02-11T09:10:00.551Z,1003.0
2023-02-11T09:20:00.563Z,1003.0
2023-02-11T09:30:00.724Z,1002.9
2023-02-11T09:40:01.774Z,1003.0
2023-02-11T09:50:00.793Z,1002.9
2023-02-11T10:00:00.921Z,1002.8
2023-02-11T10:10:00.829Z,1002.7
2023-02-11T10:20:00.849Z,1002.4
2023-02-11T10:30:00.633Z,1002.2
2023-02-11T10:40:00.752Z,1002.2
2023-02-11T10:50:00.560Z,1002.1
2023-02-11T11:00:00.558Z,1002.1
2023-02-11T11:10:00.595Z,1001.7
2023-02-11T11:20:00.555Z,1001.6
2023-02-11T11:30:00.580Z,1001.5
2023-02-11T11:40:00.551Z,1001.4
2023-02-11T11:50:00.546Z,1001.4
2023-02-11T12:00:01.144Z,1001.2
2023-02-11T12:10:00.866Z,1000.9
2023-02-11T12:20:01.032Z,1000.8
2023-02-11T12:30:01.418Z,1000.6
2023-02-11T12:40:01.147Z,1000.6
2023-02-11T12:50:00.578Z,1000.3
2023-02-11T13:00:00.608Z,1000.2
2023-02-11T13:10:00.555Z,1000.1
2023-02-11T13:20:00.554Z,1000.0
2023-02-11T13:30:03.795Z,999.8
2023-02-11T13:40:00.572Z,999.9
2023-02-11T13:50:00.563Z,999.9
2023-02-11T14:00:00.612Z,999.8
2023-02-11T14:10:00.541Z,999.7
2023-02-11T14:20:00.785Z,1000.1
2023-02-11T14:30:00.981Z,1000.1
2023-02-11T14:40:00.830Z,1000.0
2023-02-11T14:50:00.746Z,999.9
2023-02-11T15:00:01.377Z,999.8
2023-02-11T15:10:00.740Z,999.7
2023-02-11T15:20:00.848Z,999.5
2023-02-11T15:30:00.581Z,999.4
2023-02-11T15:40:00.570Z,999.4
2023-02-11T15:50:00.611Z,999.3
2023-02-11T16:00:00.554Z,999.2
2023-02-11T16:10:00.583Z,999.1
2023-02-11T16:20:00.563Z,999.0
2023-02-11T16:30:00.590Z,999.1
2023-02-11T16:40:00.542Z,999.0
2023-02-11T16:50:00.601Z,999.1
2023-02-11T17:00:01.013Z,999.2
2023-02-11T17:10:00.866Z,999.1
2023-02-11T17:20:00.895Z,999.2
2023-02-11T17:30:00.835Z,999.3
2023-02-11T17:40:00.843Z,999.2
2023-02-11T17:50:00.814Z,999.1
2023-02-11T18:00:00.993Z,999.1
2023-02-11T18:10:00.791Z,998.9
2023-02-11T18:20:00.587Z,998.8
2023-02-11T18:30:00.612Z,998.8
2023-02-11T18:40:01.200Z,998.7
2023-02-11T18:50:00.545Z,998.8
2023-02-11T19:00:00.746Z,998.9
2023-02-11T19:10:00.820Z,999.0
2023-02-11T19:20:00.799Z,998.9
2023-02-11T19:30:00.740Z,998.9
2023-02-11T19:40:00.878Z,998.9
2023-02-11T19:50:00.845Z,998.9
2023-02-11T20:00:01.483Z,998.8
2023-02-11T20:10:00.608Z,998.7
2023-02-11T20:20:00.572Z,998.8
2023-02-11T20:30:00.549Z,998.7
2023-02-11T20:40:00.632Z,998.7
2023-02-11T20:50:00.582Z,998.8
2023-02-11T21:00:00.545Z,998.7
2023-02-11T21:10:00.559Z,998.7
2023-02-11T21:20:00.553Z,998.8
2023-02-11T21:30:00.735Z,998.8
2023-02-11T21:40:00.729Z,999.0
2023-02-11T21:50:00.850Z,998.9
2023-02-11T22:00:00.955Z,998.8
2023-02-11T22:10:00.781Z,998.9
2023-02-11T22:20:00.614Z,999.1
2023-02-11T22:30:00.616Z,999.0
2023-02-11T22:40:00.992Z,998.9
2023-02-11T22:50:00.550Z,998.8
2023-02-11T23:00:00.568Z,998.8
2023-02-11T23:10:00.550Z,998.6
2023-02-11T23:20:00.546Z,998.7
2023-02-11T23:30:00.557Z,998.6
2023-02-11T23:40:00.546Z,998.7
2023-02-11T23:50:00.622Z,998.9
